Time;durP1;ratioP1;P1;durP2;ratioP2;P2;SDS_P1;SDS_P2;PMS_P1;PMS_P2;Temp;Humidity;BMP_temperature;BMP_pressure;BME280_temperature;BME280_humidity;BME280_pressure;Samples;Min_cycle;Max_cycle;Signal;HPM_P1;HPM_P2
2022/05/02 00:01:52;;;;;;;12.35;7.55;;;;;;;11.26;74.11;100676.25;5046563;28;20140;-71
2022/05/02 00:04:19;;;;;;;11.32;7.15;;;;;;;11.22;74.32;100675.50;5039933;28;20539;-68
2022/05/02 00:06:46;;;;;;;9.38;7.13;;;;;;;11.01;74.55;100639.38;5041708;28;20111;-68
2022/05/02 00:09:12;;;;;;;12.32;7.20;;;;;;;11.05;75.29;100653.34;5039076;28;20046;-72
2022/05/02 00:11:39;;;;;;;9.85;7.50;;;;;;;11.04;75.22;100662.22;5047653;28;20063;-71
2022/05/02 00:14:06;;;;;;;8.55;6.80;;;;;;;11.04;75.56;100657.78;5044073;28;20127;-70
2022/05/02 00:16:32;;;;;;;10.65;7.20;;;;;;;11.04;74.99;100651.63;5041845;28;20140;-69
2022/05/02 00:18:59;;;;;;;12.30;7.28;;;;;;;11.04;75.08;100651.63;5045946;28;20184;-74
2022/05/02 00:21:26;;;;;;;8.73;7.20;;;;;;;10.90;75.38;100638.97;5049167;28;20532;-70
2022/05/02 00:23:52;;;;;;;11.68;7.38;;;;;;;10.91;75.13;100643.34;5043930;28;20497;-72
2022/05/02 00:26:20;;;;;;;10.40;7.10;;;;;;;10.92;75.59;100647.72;5039268;28;20461;-69
2022/05/02 00:28:47;;;;;;;10.02;7.20;;;;;;;10.89;75.56;100651.38;5038132;28;20049;-69
2022/05/02 00:31:13;;;;;;;12.50;7.40;;;;;;;10.84;75.90;100644.56;5045147;28;20163;-70
2022/05/02 00:33:40;;;;;;;11.00;7.25;;;;;;;10.74;75.87;100628.19;5041244;28;20149;-70
2022/05/02 00:36:08;;;;;;;9.20;7.07;;;;;;;10.83;75.79;100649.00;5042335;28;20733;-69
2022/05/02 00:38:35;;;;;;;11.90;7.45;;;;;;;10.76;76.19;100650.19;5038093;28;20080;-68
2022/05/02 00:41:02;;;;;;;10.93;7.60;;;;;;;10.77;76.30;100649.25;5037616;28;20049;-71
2022/05/02 00:43:29;;;;;;;12.10;8.30;;;;;;;10.74;76.80;100638.78;5041943;28;20505;-69
2022/05/02 00:45:56;;;;;;;11.18;7.43;;;;;;;10.72;76.71;100645.09;5044617;28;20057;-69
2022/05/02 00:48:22;;;;;;;10.38;7.93;;;;;;;10.74;77.38;100644.09;5044201;28;20044;-73
2022/05/02 00:50:49;;;;;;;10.13;7.30;;;;;;;10.68;76.83;100644.38;5045072;28;20130;-74
2022/05/02 00:53:20;;;;;;;12.40;7.78;;;;;;;10.71;77.46;100644.22;5042119;28;20551;-68
2022/05/02 00:55:46;;;;;;;11.68;8.35;;;;;;;10.59;77.33;100623.56;5040212;28;20048;-68
2022/05/02 00:58:15;;;;;;;12.55;7.78;;;;;;;10.52;77.35;100622.13;5039617;28;20119;-72
2022/05/02 01:00:42;;;;;;;8.68;7.57;;;;;;;10.61;77.75;100640.25;5030282;28;20052;-70
2022/05/02 01:03:11;;;;;;;13.27;7.97;;;;;;;10.41;77.92;100609.34;5037150;28;20049;-77
2022/05/02 01:08:32;;;;;;;12.25;8.10;;;;;;;10.57;77.61;100646.59;5034867;28;20128;-73
2022/05/02 01:11:00;;;;;;;9.60;7.38;;;;;;;10.49;78.00;100632.84;5030140;28;20130;-71
2022/05/02 01:13:37;;;;;;;11.77;8.07;;;;;;;10.48;78.57;100633.78;5045519;28;20805;-69
2022/05/02 01:16:22;;;;;;;10.63;7.75;;;;;;;10.48;78.46;100631.13;5040896;28;20084;-71
2022/05/02 01:18:51;;;;;;;10.13;8.00;;;;;;;10.36;78.58;100619.28;5033412;28;20053;-73
2022/05/02 01:21:19;;;;;;;12.68;7.65;;;;;;;10.45;78.31;100628.59;5041599;28;20048;-70
2022/05/02 01:23:54;;;;;;;12.55;7.72;;;;;;;10.40;79.04;100622.63;5040575;28;20191;-70
2022/05/02 01:26:22;;;;;;;11.77;7.88;;;;;;;10.37;78.88;100628.09;5040485;28;20049;-70
2022/05/02 01:28:54;;;;;;;12.73;8.23;;;;;;;10.36;78.94;100627.22;5044847;28;20088;-71
2022/05/02 01:31:21;;;;;;;9.00;7.85;;;;;;;10.33;79.02;100623.84;5040486;28;20539;-68
2022/05/02 01:33:50;;;;;;;9.98;7.90;;;;;;;10.30;78.88;100629.25;5041953;28;20456;-69
2022/05/02 01:36:19;;;;;;;12.40;7.47;;;;;;;10.21;79.62;100616.44;5047592;28;20052;-71
2022/05/02 01:38:46;;;;;;;9.40;7.45;;;;;;;10.29;79.65;100628.41;5042815;28;20142;-70
2022/05/02 01:41:13;;;;;;;10.95;7.85;;;;;;;10.26;79.74;100630.31;5036129;28;20393;-69
2022/05/02 01:43:40;;;;;;;12.18;8.27;;;;;;;10.26;79.64;100633.81;5019173;28;20049;-68
2022/05/02 01:46:08;;;;;;;10.90;7.80;;;;;;;10.24;79.36;100640.09;5050513;28;20059;-72
2022/05/02 01:48:35;;;;;;;10.65;8.25;;;;;;;10.08;80.06;100613.38;5036676;28;20049;-69
2022/05/02 01:51:03;;;;;;;10.98;7.93;;;;;;;10.02;79.88;100609.22;5040210;28;20072;-69
2022/05/02 01:53:30;;;;;;;10.15;7.95;;;;;;;10.17;79.99;100629.75;5046286;28;20114;-69
2022/05/02 01:55:57;;;;;;;12.75;8.27;;;;;;;10.19;80.13;100632.38;5043678;28;20095;-69
2022/05/02 01:58:23;;;;;;;12.57;8.35;;;;;;;10.16;79.75;100620.09;5037254;28;20128;-71
2022/05/02 02:00:50;;;;;;;13.85;8.10;;;;;;;10.14;79.90;100611.34;5040502;28;20453;-69
2022/05/02 02:03:17;;;;;;;12.05;8.00;;;;;;;10.17;79.85;100618.28;5027255;28;20107;-74
2022/05/02 02:05:50;;;;;;;12.30;7.78;;;;;;;10.13;80.04;100614.91;5048456;28;20045;-69
2022/05/02 02:08:19;;;;;;;11.65;7.70;;;;;;;10.13;80.54;100625.50;5044126;28;20122;-69
2022/05/02 02:10:47;;;;;;;11.13;9.20;;;;;;;10.15;80.41;100623.66;5044487;28;20103;-69
2022/05/02 02:13:15;;;;;;;12.55;8.68;;;;;;;10.09;81.09;100615.94;5044806;28;20049;-78
2022/05/02 02:15:41;;;;;;;12.65;8.63;;;;;;;9.98;81.34;100593.53;5043362;28;20057;-69
2022/05/02 02:18:09;;;;;;;13.30;8.23;;;;;;;9.97;81.25;100608.53;5048188;28;20069;-72
2022/05/02 02:20:36;;;;;;;14.27;9.05;;;;;;;9.99;81.56;100614.63;5047048;28;20055;-69
2022/05/02 02:23:03;;;;;;;12.52;8.55;;;;;;;9.90;81.77;100601.78;5047182;28;20114;-71
2022/05/02 02:25:32;;;;;;;12.05;8.20;;;;;;;9.95;81.84;100618.31;5040910;28;20064;-69
2022/05/02 02:28:00;;;;;;;12.65;9.32;;;;;;;9.92;81.86;100614.91;5043409;28;20154;-68
2022/05/02 02:30:28;;;;;;;12.38;8.38;;;;;;;9.85;82.68;100611.69;5043465;28;20050;-68
2022/05/02 02:32:55;;;;;;;11.48;8.50;;;;;;;9.80;82.84;100617.16;5043008;28;20084;-71
2022/05/02 02:35:22;;;;;;;13.65;8.57;;;;;;;9.68;83.06;100600.91;5055884;28;20111;-69
2022/05/02 02:37:49;;;;;;;12.38;8.95;;;;;;;9.68;83.53;100609.72;5047969;28;20566;-71
2022/05/02 02:40:17;;;;;;;13.45;8.73;;;;;;;9.62;83.67;100603.78;5041080;28;20064;-69
2022/05/02 02:42:44;;;;;;;11.60;8.90;;;;;;;9.63;84.07;100605.50;5044018;28;20753;-71
2022/05/02 02:45:11;;;;;;;14.77;9.40;;;;;;;9.63;84.38;100609.03;5043224;28;20076;-70
2022/05/02 02:47:38;;;;;;;14.63;9.45;;;;;;;9.65;84.29;100598.38;5041592;28;20054;-72
2022/05/02 02:50:06;;;;;;;15.93;8.82;;;;;;;9.61;84.08;100594.13;5046001;28;20052;-70
2022/05/02 02:52:33;;;;;;;14.88;9.00;;;;;;;9.70;84.16;100599.06;5044534;28;20104;-70
2022/05/02 02:54:59;;;;;;;13.15;8.38;;;;;;;9.62;84.23;100585.28;5038040;28;20045;-70
2022/05/02 02:57:26;;;;;;;11.45;8.98;;;;;;;9.66;84.23;100586.91;5043350;28;20041;-69
2022/05/02 02:59:53;;;;;;;12.82;8.85;;;;;;;9.73;84.56;100598.97;5015309;28;20077;-69
2022/05/02 03:02:21;;;;;;;12.77;7.97;;;;;;;9.72;84.59;100591.94;5036002;28;20564;-68
2022/05/02 03:07:34;;;;;;;14.63;8.70;;;;;;;9.59;84.30;100570.44;5038305;28;20186;-69
2022/05/02 03:10:01;;;;;;;16.90;10.18;;;;;;;9.53;83.81;100551.31;5048150;28;20077;-71
2022/05/02 03:12:27;;;;;;;10.43;8.77;;;;;;;9.53;84.21;100554.81;5038129;28;20045;-69
2022/05/02 03:14:54;;;;;;;13.55;8.73;;;;;;;9.60;84.53;100577.41;5037132;28;20473;-68
2022/05/02 03:17:22;;;;;;;10.93;8.50;;;;;;;9.56;84.33;100574.97;5038350;28;20123;-70
2022/05/02 03:19:49;;;;;;;15.55;9.38;;;;;;;9.54;84.91;100572.38;5044253;28;20053;-68
2022/05/02 03:22:15;;;;;;;12.25;8.40;;;;;;;9.52;84.91;100576.00;5043630;28;20053;-68
2022/05/02 03:24:42;;;;;;;11.73;8.88;;;;;;;9.54;84.91;100579.47;5037850;28;20067;-70
2022/05/02 03:27:09;;;;;;;12.15;8.82;;;;;;;9.55;84.55;100578.53;5045492;28;20076;-68
2022/05/02 03:29:36;;;;;;;12.07;8.70;;;;;;;9.52;84.40;100571.59;5040259;28;20561;-71
2022/05/02 03:32:03;;;;;;;12.55;9.43;;;;;;;9.44;84.73;100569.22;5037446;28;20110;-69
2022/05/02 03:34:30;;;;;;;12.70;8.68;;;;;;;9.42;84.82;100559.66;5043527;28;20057;-68
2022/05/02 03:36:56;;;;;;;13.73;8.93;;;;;;;9.23;85.30;100533.09;5043492;28;20561;-72
2022/05/02 03:39:23;;;;;;;11.30;8.93;;;;;;;9.38;85.06;100561.56;5023228;28;20085;-70
2022/05/02 03:41:50;;;;;;;11.57;9.15;;;;;;;9.36;85.32;100558.13;5031267;28;20057;-72
2022/05/02 03:44:16;;;;;;;11.57;8.93;;;;;;;9.30;85.43;100557.47;5040862;28;20069;-70
2022/05/02 03:46:43;;;;;;;14.23;9.50;;;;;;;9.21;85.59;100550.78;5038601;28;20071;-73
2022/05/02 03:49:10;;;;;;;14.48;8.90;;;;;;;9.14;85.34;100534.31;5042508;28;20057;-71
2022/05/02 03:51:37;;;;;;;11.23;8.73;;;;;;;9.19;85.80;100539.41;5039322;28;20423;-69
2022/05/02 03:54:04;;;;;;;10.20;8.68;;;;;;;9.28;85.71;100559.34;5042220;28;20140;-74
2022/05/02 03:56:30;;;;;;;12.55;9.40;;;;;;;9.31;86.09;100575.06;5038644;28;20047;-68
2022/05/02 03:58:57;;;;;;;12.60;9.20;;;;;;;9.18;85.87;100560.59;5038629;28;20468;-69
2022/05/02 04:01:24;;;;;;;14.07;9.77;;;;;;;9.22;86.06;100578.06;5044198;28;20110;-68
2022/05/02 04:03:51;;;;;;;13.57;8.98;;;;;;;9.20;86.63;100571.97;5043172;28;20049;-71
2022/05/02 04:06:17;;;;;;;11.55;8.75;;;;;;;9.15;86.86;100575.66;5039179;28;20506;-69
2022/05/02 04:08:44;;;;;;;11.38;8.82;;;;;;;9.12;87.01;100567.00;5044187;28;20466;-69
2022/05/02 04:11:11;;;;;;;11.98;9.35;;;;;;;9.08;87.31;100578.59;5038232;28;20044;-70
2022/05/02 04:13:38;;;;;;;13.15;9.65;;;;;;;9.10;87.51;100576.78;5035743;28;20119;-69
2022/05/02 04:16:04;;;;;;;13.38;9.43;;;;;;;9.12;87.21;100580.22;5045004;28;20160;-69
2022/05/02 04:18:31;;;;;;;15.27;9.57;;;;;;;9.12;87.52;100586.38;5040485;28;20049;-71
2022/05/02 04:20:58;;;;;;;11.73;9.35;;;;;;;9.07;88.02;100566.31;5041127;28;20095;-72
2022/05/02 04:23:25;;;;;;;13.00;9.95;;;;;;;9.01;87.69;100555.97;5045955;28;20049;-69
2022/05/02 04:25:51;;;;;;;12.55;9.40;;;;;;;9.07;87.94;100567.16;5041526;28;20049;-71
2022/05/02 04:28:18;;;;;;;14.35;10.10;;;;;;;9.08;87.80;100566.25;5042883;28;20082;-70
2022/05/02 04:30:45;;;;;;;12.55;8.77;;;;;;;9.18;87.64;100568.53;5045477;28;20056;-71
2022/05/02 04:33:12;;;;;;;20.00;10.23;;;;;;;9.05;87.04;100547.00;5042744;28;20408;-71
2022/05/02 04:35:39;;;;;;;13.93;10.00;;;;;;;9.20;87.02;100567.56;5038154;28;20059;-69
2022/05/02 04:38:05;;;;;;;12.40;9.40;;;;;;;9.08;86.74;100546.91;5045786;28;20156;-69
2022/05/02 04:40:33;;;;;;;12.65;9.30;;;;;;;9.19;86.84;100563.19;5028595;28;20059;-72
2022/05/02 04:42:59;;;;;;;14.98;9.80;;;;;;;9.20;87.24;100575.47;5045651;28;20121;-69
2022/05/02 04:45:26;;;;;;;13.60;9.88;;;;;;;9.19;86.89;100563.19;5043136;28;20123;-68
2022/05/02 04:47:53;;;;;;;13.23;8.80;;;;;;;9.01;86.87;100537.47;5041015;28;20044;-72
2022/05/02 04:50:19;;;;;;;15.05;9.88;;;;;;;9.24;86.85;100574.47;5035250;28;20226;-71
2022/05/02 04:52:46;;;;;;;14.48;9.57;;;;;;;9.29;87.08;100571.63;5036477;28;20073;-72
2022/05/02 04:55:14;;;;;;;13.48;9.20;;;;;;;9.33;86.91;100571.44;5034428;28;20048;-71
2022/05/02 04:57:41;;;;;;;15.27;9.80;;;;;;;9.32;86.50;100566.22;5038000;28;20061;-71
2022/05/02 05:00:08;;;;;;;14.65;9.80;;;;;;;9.41;86.40;100569.38;5035426;28;20045;-69
2022/05/02 05:02:35;;;;;;;13.02;10.25;;;;;;;9.47;85.49;100571.75;5044450;28;20083;-71
2022/05/02 05:05:02;;;;;;;11.88;9.35;;;;;;;9.53;85.57;100570.66;5038778;28;20416;-70
2022/05/02 05:07:29;;;;;;;13.40;10.13;;;;;;;9.59;85.33;100574.84;5038528;28;20583;-68
2022/05/02 05:09:56;;;;;;;14.32;9.90;;;;;;;9.58;85.23;100567.84;5037930;28;20130;-68
2022/05/02 05:12:53;;;;;;;15.55;9.73;;;;;;;9.68;84.64;100574.47;5039791;28;20076;-68
2022/05/02 05:18:44;;;;;;;11.15;8.85;;;;;;;9.80;84.36;100577.47;5040847;28;20049;-70
2022/05/02 05:21:40;;;;;;;11.75;9.05;;;;;;;9.89;84.01;100576.25;5029583;28;20118;-68
2022/05/02 05:24:22;;;;;;;12.95;9.50;;;;;;;9.98;83.14;100580.28;5015400;28;20064;-70
2022/05/02 05:27:02;;;;;;;15.52;10.25;;;;;;;10.04;82.93;100569.47;5033790;28;20069;-68
2022/05/02 05:29:43;;;;;;;12.50;9.45;;;;;;;10.05;82.29;100564.13;5027286;28;20794;-71
2022/05/02 05:32:36;;;;;;;12.90;9.60;;;;;;;10.16;81.05;100569.81;5045295;28;20095;-70
2022/05/02 05:35:06;;;;;;;12.93;9.20;;;;;;;10.24;80.88;100574.78;5041223;28;20099;-74
2022/05/02 05:37:41;;;;;;;14.20;9.27;;;;;;;10.21;80.46;100571.44;5041033;28;20135;-72
2022/05/02 05:40:28;;;;;;;13.05;8.93;;;;;;;10.32;79.83;100588.56;5042244;28;20044;-71
2022/05/02 05:43:37;;;;;;;14.63;8.95;;;;;;;10.38;79.76;100576.88;5042319;28;20063;-71
2022/05/02 05:46:27;;;;;;;13.43;8.77;;;;;;;10.48;79.98;100586.97;5038992;28;20088;-71
2022/05/02 05:49:33;;;;;;;12.73;8.50;;;;;;;10.61;79.38;100586.44;5046483;28;20075;-74
2022/05/02 05:52:20;;;;;;;13.65;9.50;;;;;;;10.74;78.22;100595.56;4989333;28;20148;-72
2022/05/02 05:55:02;;;;;;;10.90;8.68;;;;;;;10.82;78.08;100593.44;5042710;28;20106;-70
2022/05/02 05:57:51;;;;;;;14.38;9.18;;;;;;;10.93;76.57;100592.94;5043858;28;20744;-72
2022/05/02 06:00:21;;;;;;;13.25;9.73;;;;;;;11.01;76.51;100602.28;5040725;28;20251;-72
2022/05/02 06:03:00;;;;;;;15.35;9.07;;;;;;;11.09;76.28;100600.13;5044546;28;21718;-71
2022/05/02 06:05:27;;;;;;;10.60;8.63;;;;;;;11.18;76.14;100601.50;5041187;28;20048;-70
2022/05/02 06:07:55;;;;;;;12.27;9.02;;;;;;;11.25;75.35;100595.00;5040536;28;20040;-70
2022/05/02 06:10:28;;;;;;;14.27;9.00;;;;;;;11.37;74.46;100597.06;5042149;28;20052;-71
2022/05/02 06:12:57;;;;;;;13.98;9.10;;;;;;;11.51;73.52;100591.97;5025888;28;20120;-70
2022/05/02 06:18:28;;;;;;;11.20;8.85;;;;;;;11.78;72.27;100581.00;5037398;28;20041;-71
2022/05/02 06:20:59;;;;;;;11.00;8.75;;;;;;;12.07;72.48;100593.69;5040277;28;20061;-70
2022/05/02 06:23:27;;;;;;;;;;;;;;;12.43;71.29;100590.13;5045524;28;20060;-69
2022/05/02 06:25:55;;;;;;;14.15;8.25;;;;;;;12.62;69.61;100551.00;5044009;28;19924;-73
2022/05/02 06:28:27;;;;;;;12.45;8.55;;;;;;;13.30;67.04;100584.53;5041200;28;20449;-69
2022/05/02 06:30:58;;;;;;;14.35;8.45;;;;;;;13.54;64.40;100557.50;5038783;28;20053;-69
2022/05/02 06:33:26;;;;;;;9.82;7.53;;;;;;;13.81;64.13;100585.22;5039904;28;20169;-73
2022/05/02 06:35:53;;;;;;;13.43;8.23;;;;;;;13.98;63.46;100582.44;5038404;28;20076;-69
2022/05/02 06:38:31;;;;;;;12.15;7.55;;;;;;;14.35;62.77;100585.59;5037455;28;20111;-68
2022/05/02 06:41:16;;;;;;;11.77;8.02;;;;;;;14.61;61.78;100584.06;5042621;28;20457;-71
2022/05/02 06:44:13;;;;;;;10.85;7.50;;;;;;;14.82;60.03;100574.75;5046531;28;20041;-69
2022/05/02 06:46:55;;;;;;;12.38;7.80;;;;;;;14.97;60.03;100573.78;5042324;28;20741;-72
2022/05/02 06:49:25;;;;;;;12.98;8.30;;;;;;;15.20;60.29;100584.84;5041060;28;20076;-73
2022/05/02 06:51:55;;;;;;;10.30;7.75;;;;;;;15.50;58.10;100588.22;5018398;28;20453;-69
2022/05/02 06:55:07;;;;;;;10.23;7.90;;;;;;;15.77;57.04;100583.81;5038107;28;20126;-72
2022/05/02 06:57:39;;;;;;;11.80;7.55;;;;;;;16.17;55.96;100578.50;5045750;28;20068;-72
2022/05/02 07:00:10;;;;;;;10.60;7.82;;;;;;;16.39;54.35;100568.06;5044176;28;20056;-73
2022/05/02 07:02:58;;;;;;;12.60;7.50;;;;;;;16.12;54.35;100549.41;5041489;28;20103;-72
2022/05/02 07:05:35;;;;;;;9.50;7.50;;;;;;;15.98;55.14;100570.00;5042265;28;20060;-71
2022/05/02 07:08:05;;;;;;;10.55;7.45;;;;;;;15.62;55.99;100566.13;5044480;28;20041;-72
2022/05/02 07:10:36;;;;;;;12.57;7.90;;;;;;;15.22;57.94;100562.47;5039673;28;20060;-70
2022/05/02 07:13:37;;;;;;;9.75;7.85;;;;;;;14.98;59.41;100570.19;5045691;28;20044;-71
2022/05/02 07:16:22;;;;;;;10.52;7.70;;;;;;;14.88;60.10;100558.38;5043214;28;20049;-73
2022/05/02 07:19:05;;;;;;;10.40;7.20;;;;;;;15.09;59.87;100572.19;5042215;28;20060;-78
2022/05/02 07:22:03;;;;;;;9.52;7.38;;;;;;;15.67;59.78;100580.03;5045470;28;20056;-71
2022/05/02 07:24:38;;;;;;;10.15;7.32;;;;;;;16.04;55.53;100586.47;5039075;28;20049;-72
2022/05/02 07:27:29;;;;;;;12.57;7.65;;;;;;;15.93;55.92;100589.00;5049998;28;20469;-68
2022/05/02 07:30:00;;;;;;;7.95;7.15;;;;;;;15.98;55.90;100592.22;5037768;28;21460;-68
2022/05/02 07:32:28;;;;;;;10.43;7.70;;;;;;;16.02;55.77;100595.56;5041106;28;20084;-69
2022/05/02 07:34:57;;;;;;;13.25;7.85;;;;;;;16.20;55.84;100586.31;5045431;28;20048;-69
2022/05/02 07:37:24;;;;;;;11.25;7.47;;;;;;;16.22;54.78;100572.81;5042094;28;20454;-68
2022/05/02 07:39:52;;;;;;;8.75;7.55;;;;;;;16.29;55.26;100576.81;5043780;28;20087;-76
2022/05/02 07:42:19;;;;;;;10.10;7.38;;;;;;;16.12;55.31;100564.59;5044795;28;20049;-70
2022/05/02 07:44:52;;;;;;;9.63;7.22;;;;;;;16.27;56.43;100584.06;5041515;28;20076;-70
2022/05/02 07:47:21;;;;;;;12.00;7.47;;;;;;;16.39;55.23;100583.22;5039450;28;20099;-74
2022/05/02 07:49:56;;;;;;;10.32;7.70;;;;;;;16.49;54.28;100589.69;5042466;28;20063;-71
2022/05/02 07:52:25;;;;;;;13.05;7.45;;;;;;;16.38;55.55;100590.38;5037883;28;20049;-69
2022/05/02 07:54:55;;;;;;;11.20;8.40;;;;;;;16.23;55.53;100585.22;5048941;28;20045;-70
2022/05/02 07:57:26;;;;;;;9.98;7.38;;;;;;;15.98;56.26;100584.22;5024556;28;20104;-76
2022/05/02 07:59:57;;;;;;;10.35;7.45;;;;;;;15.85;55.56;100587.78;5044707;28;20052;-72
2022/05/02 08:02:24;;;;;;;10.40;7.22;;;;;;;15.79;56.29;100589.91;5049040;28;20456;-69
2022/05/02 08:04:54;;;;;;;12.43;8.23;;;;;;;15.64;56.48;100580.22;5045162;28;20065;-69
2022/05/02 08:07:36;;;;;;;10.37;7.67;;;;;;;15.56;57.43;100597.69;5042509;28;20107;-72
2022/05/02 08:10:17;;;;;;;11.55;7.90;;;;;;;15.73;57.45;100595.66;5038407;28;20130;-74
2022/05/02 08:12:55;;;;;;;11.02;7.40;;;;;;;15.90;56.77;100591.03;5047546;28;20153;-69
2022/05/02 08:15:43;;;;;;;10.70;7.78;;;;;;;16.08;56.19;100587.13;5033409;28;20098;-71
2022/05/02 08:18:12;;;;;;;12.55;8.05;;;;;;;16.11;54.81;100570.88;5042456;28;20053;-69
2022/05/02 08:20:51;;;;;;;9.57;7.53;;;;;;;16.09;54.98;100575.47;5043065;28;20057;-70
2022/05/02 08:27:17;;;;;;;11.30;8.40;;;;;;;15.82;54.43;100566.63;5047659;28;20048;-69
2022/05/02 08:30:05;;;;;;;10.88;7.38;;;;;;;16.23;55.50;100582.56;5045933;28;20087;-69
2022/05/02 08:33:02;;;;;;;8.95;7.80;;;;;;;16.72;54.91;100580.94;5043162;28;20048;-71
2022/05/02 08:35:44;;;;;;;8.75;7.43;;;;;;;17.10;52.22;100580.09;5036638;28;20539;-73
2022/05/02 08:38:37;;;;;;;10.02;8.13;;;;;;;17.32;52.01;100579.38;5047772;28;20120;-70
2022/05/02 08:41:28;;;;;;;11.13;7.78;;;;;;;17.39;51.60;100575.31;5036476;28;20076;-70
2022/05/02 08:44:13;;;;;;;9.40;7.93;;;;;;;17.13;52.43;100575.38;5045598;28;20044;-70
2022/05/02 08:47:18;;;;;;;12.07;8.15;;;;;;;16.78;52.80;100579.69;5039920;28;20052;-70
2022/05/02 08:49:57;;;;;;;12.60;8.68;;;;;;;16.69;53.29;100577.63;5043141;28;20497;-72
2022/05/02 08:52:52;;;;;;;11.07;7.88;;;;;;;16.75;53.46;100585.22;5020571;28;20106;-69
2022/05/02 08:55:33;;;;;;;10.30;8.02;;;;;;;16.59;53.36;100568.50;5037153;28;20098;-72
2022/05/02 08:58:37;;;;;;;10.15;7.82;;;;;;;16.31;54.38;100577.56;5040239;28;20061;-69
2022/05/02 09:01:36;;;;;;;8.63;7.28;;;;;;;16.44;54.63;100555.25;5042545;28;20117;-69
2022/05/02 09:04:45;;;;;;;9.30;6.80;;;;;;;17.18;52.56;100572.34;5039150;28;20053;-70
2022/05/02 09:07:32;;;;;;;8.93;7.80;;;;;;;17.44;51.67;100570.50;5042403;28;20051;-73
2022/05/02 09:10:20;;;;;;;10.75;8.05;;;;;;;17.43;52.19;100571.47;5039250;28;20049;-69
2022/05/02 09:13:06;;;;;;;9.00;7.55;;;;;;;17.53;51.62;100562.63;5040901;28;20057;-68
2022/05/02 09:16:11;;;;;;;9.57;7.43;;;;;;;17.65;50.46;100565.41;5038940;28;20405;-73
2022/05/02 09:19:05;;;;;;;9.63;7.10;;;;;;;17.47;50.31;100563.06;5034179;28;20061;-69
2022/05/02 09:21:41;;;;;;;10.27;7.90;;;;;;;17.37;50.99;100566.53;5042786;28;20053;-69
2022/05/02 09:24:22;;;;;;;10.57;8.05;;;;;;;17.33;50.95;100565.03;5039738;28;20041;-69
2022/05/02 09:27:12;;;;;;;13.52;7.88;;;;;;;17.23;51.53;100577.38;5040050;28;20111;-69
2022/05/02 09:30:07;;;;;;;9.02;7.38;;;;;;;17.19;50.50;100571.38;5036173;28;20053;-74
2022/05/02 09:32:52;;;;;;;11.50;7.60;;;;;;;17.21;50.61;100566.78;5041597;28;20086;-69
2022/05/02 09:35:31;;;;;;;12.13;8.20;;;;;;;17.29;51.38;100559.06;5039776;28;20046;-72
2022/05/02 09:38:21;;;;;;;8.85;7.75;;;;;;;17.49;51.25;100566.50;5040196;28;20064;-72
2022/05/02 09:40:48;;;;;;;9.30;8.25;;;;;;;17.55;50.46;100554.50;5042239;28;20504;-72
2022/05/02 09:50:02;;;;;;;11.77;8.65;;;;;;;17.80;50.08;100541.03;5033172;28;20123;-73
2022/05/02 09:53:03;;;;;;;12.88;7.70;;;;;;;17.92;50.28;100541.94;5000270;28;21004;-70
2022/05/02 09:58:31;;;;;;;;;;;;;;;18.15;49.14;100548.22;5039153;28;20077;-75
2022/05/02 10:01:07;;;;;;;11.57;8.07;;;;;;;18.13;47.61;100539.44;5036864;28;19920;-72
2022/05/02 10:03:38;;;;;;;12.18;8.02;;;;;;;17.97;48.64;100518.31;5040865;28;20396;-69
2022/05/02 10:06:10;;;;;;;10.13;7.93;;;;;;;17.90;48.54;100526.94;5040589;28;20045;-71
2022/05/02 10:09:20;;;;;;;11.98;8.10;;;;;;;17.83;48.73;100522.03;5042138;28;20053;-69
2022/05/02 10:11:53;;;;;;;12.73;8.65;;;;;;;18.07;48.44;100527.41;5019680;28;20069;-79
2022/05/02 10:14:37;;;;;;;11.35;8.43;;;;;;;18.41;48.07;100524.81;5040136;28;20052;-72
2022/05/02 10:17:11;;;;;;;10.23;8.15;;;;;;;18.64;47.43;100523.88;5037341;28;20077;-69
2022/05/02 10:20:06;;;;;;;12.60;8.30;;;;;;;18.59;47.35;100518.03;5036594;28;20060;-72
2022/05/02 10:22:46;;;;;;;11.02;8.45;;;;;;;18.44;47.13;100520.03;5015789;28;20041;-70
2022/05/02 10:25:20;;;;;;;12.70;8.50;;;;;;;18.41;48.21;100512.25;5041669;28;20735;-69
2022/05/02 10:28:23;;;;;;;12.02;9.25;;;;;;;18.24;47.15;100485.91;5042600;28;20770;-72
2022/05/02 10:31:19;;;;;;;11.60;8.48;;;;;;;18.30;47.45;100492.59;5043886;28;20487;-72
2022/05/02 10:33:50;;;;;;;10.35;8.15;;;;;;;18.62;46.81;100517.78;5045092;28;20627;-70
2022/05/02 10:36:20;;;;;;;10.07;8.13;;;;;;;18.74;46.29;100499.88;5038827;28;20087;-73
2022/05/02 10:39:01;;;;;;;9.15;8.05;;;;;;;18.83;46.63;100499.16;5042236;28;20041;-76
2022/05/02 10:41:45;;;;;;;11.35;8.38;;;;;;;18.84;46.80;100499.03;5043244;28;20045;-71
2022/05/02 10:44:16;;;;;;;9.88;7.50;;;;;;;18.78;47.41;100494.13;5040713;28;20477;-72
2022/05/02 10:46:46;;;;;;;11.00;8.40;;;;;;;18.58;47.72;100459.94;5039951;28;20412;-72
2022/05/02 10:49:50;;;;;;;10.93;8.25;;;;;;;18.75;47.70;100493.53;5050518;28;20049;-73
2022/05/02 10:52:25;;;;;;;10.20;8.48;;;;;;;18.87;46.34;100497.94;5046786;28;20118;-77
2022/05/02 10:55:02;;;;;;;9.15;7.97;;;;;;;18.87;47.25;100487.22;5045628;28;20049;-73
2022/05/02 10:57:39;;;;;;;8.63;7.22;;;;;;;18.64;47.63;100464.88;5042381;28;20050;-75
2022/05/02 11:00:12;;;;;;;13.40;8.20;;;;;;;18.68;46.06;100465.50;5040638;28;20061;-72
2022/05/02 11:03:03;;;;;;;8.13;6.93;;;;;;;18.89;46.52;100479.84;5044675;28;20095;-73
2022/05/02 11:06:10;;;;;;;8.57;7.15;;;;;;;19.01;47.01;100478.91;5009563;28;20041;-74
2022/05/02 11:08:46;;;;;;;11.18;8.43;;;;;;;18.96;46.79;100486.44;5027703;28;20441;-73
2022/05/02 11:11:39;;;;;;;9.13;7.63;;;;;;;18.76;45.44;100481.81;5026045;28;20053;-75
2022/05/02 11:14:32;;;;;;;13.50;8.38;;;;;;;18.85;45.07;100478.41;5020959;28;20137;-72
2022/05/02 11:17:24;;;;;;;12.13;7.95;;;;;;;18.91;44.86;100478.75;5023686;28;20096;-71
2022/05/02 11:23:13;;;;;;;9.40;8.05;;;;;;;19.30;45.16;100463.09;5024998;28;20252;-73
2022/05/02 11:25:55;;;;;;;10.20;7.93;;;;;;;19.47;44.41;100467.94;5024700;28;20049;-71
2022/05/02 11:28:33;;;;;;;12.00;8.80;;;;;;;19.40;44.75;100447.94;5004284;28;21234;-71
2022/05/02 11:31:09;;;;;;;9.90;8.90;;;;;;;19.46;44.58;100465.38;5023343;28;20386;-71
2022/05/02 11:33:47;;;;;;;10.70;8.45;;;;;;;19.41;44.73;100452.31;5022263;28;20052;-71
2022/05/02 11:36:14;;;;;;;10.57;8.35;;;;;;;19.48;45.27;100450.00;5022289;28;20061;-71
2022/05/02 11:38:54;;;;;;;13.55;8.68;;;;;;;19.46;45.29;100442.06;5028413;28;20080;-69
2022/05/02 11:41:23;;;;;;;11.57;8.38;;;;;;;19.57;45.71;100450.09;5027993;28;20045;-70
2022/05/02 11:44:11;;;;;;;10.60;8.30;;;;;;;19.49;45.10;100446.31;5003318;28;20049;-71
2022/05/02 11:47:05;;;;;;;12.18;8.23;;;;;;;19.46;45.93;100446.56;5027426;28;20497;-71
2022/05/02 11:49:50;;;;;;;8.00;7.13;;;;;;;19.55;46.17;100441.31;5027548;28;20088;-70
2022/05/02 11:52:32;;;;;;;12.68;8.70;;;;;;;19.69;45.43;100420.47;5022998;28;20053;-70
2022/05/02 11:55:00;;;;;;;10.60;7.85;;;;;;;20.02;45.23;100427.50;5020241;28;20053;-69
2022/05/02 11:57:29;;;;;;;9.75;7.55;;;;;;;20.14;44.88;100426.50;5025686;28;20542;-70
2022/05/02 12:00:09;;;;;;;9.85;7.78;;;;;;;20.17;44.53;100436.94;5025439;28;20501;-68
2022/05/02 12:02:45;;;;;;;10.63;8.57;;;;;;;20.01;43.76;100415.91;5030283;28;20049;-72
2022/05/02 12:05:17;;;;;;;9.10;7.88;;;;;;;19.94;44.49;100431.72;5036891;28;20068;-73
2022/05/02 12:08:02;;;;;;;9.70;8.45;;;;;;;19.81;44.58;100420.31;5046832;28;20049;-70
2022/05/02 12:10:47;;;;;;;10.35;7.50;;;;;;;19.95;44.14;100411.09;5048183;28;20753;-71
2022/05/02 12:13:20;;;;;;;11.02;8.65;;;;;;;19.79;44.16;100410.69;5037876;28;20490;-74
2022/05/02 12:15:59;;;;;;;10.77;8.45;;;;;;;19.90;44.15;100419.53;5041283;28;20049;-69
2022/05/02 12:18:52;;;;;;;12.10;7.70;;;;;;;19.91;43.47;100423.06;5043004;28;20049;-69
2022/05/02 12:21:40;;;;;;;11.43;8.73;;;;;;;19.98;44.35;100423.41;5039540;28;20132;-72
2022/05/02 12:24:09;;;;;;;10.65;8.35;;;;;;;20.20;44.00;100420.56;5036153;28;20066;-69
2022/05/02 12:26:52;;;;;;;11.43;8.20;;;;;;;20.40;43.45;100416.19;5040237;28;20124;-77